NZCH/CHC METAR and TAF weather

Enter ICAO airport designator
Station Type Date Time Source
NZCH METAR 2021/07/29 02:30 UTC NOAA

NZCH 290230Z AUTO 07010KT 9999 FEW014/// 10/07 Q1013 NOSIG


Station Type Date Time Source
NZCH Decoded METAR 2021/07/29 02:30 UTC NOAA

Christchurch, New Zealand (NZCH) 43-29S 172-33E 30M
Jul 28, 2021 - 10:30 PM EDT / 2021.07.29 0230 UTC
Wind: from the ENE (070 degrees) at 12 MPH (10 KT):0
Visibility: greater than 7 mile(s):0
Sky conditions: mostly clear
Temperature: 50 F (10 C)
Dew Point: 44 F (7 C)
Relative Humidity: 81%
Pressure (altimeter): 29.91 in. Hg (1013 hPa)
ob: NZCH 290230Z AUTO 07010KT 9999 FEW014/// 10/07 Q1013 NOSIG
cycle: 2

Station Type Date Time Source
NZCH TAF 2021/07/28 19:25 UTC NOAA

TAF
AMD NZCH 281915Z 2819/2918 30005KT 9999 FEW009
TEMPO 2819/2822 BKN009
FM290000 06010KT CAVOK
BECMG 2910/2912 VRB02KT

Example: see airport list